createdAt,value
2023-02-03T00:00:23.457Z,100849.66
2023-02-03T00:03:46.284Z,100857.41
2023-02-03T00:07:08.733Z,100868.63
2023-02-03T00:10:31.564Z,100867.94
2023-02-03T00:13:55.321Z,100861.19
2023-02-03T00:17:17.781Z,100863.94
2023-02-03T00:20:42.671Z,100870.94
2023-02-03T00:24:05.171Z,100872.06
2023-02-03T00:27:27.408Z,100877.37
2023-02-03T00:30:54.100Z,100888.97
2023-02-03T00:34:16.715Z,100908.41
2023-02-03T00:37:39.021Z,100911.19
2023-02-03T00:41:02.504Z,100910.19
2023-02-03T00:44:27.679Z,100918.94
2023-02-03T00:47:53.651Z,100919.09
2023-02-03T00:51:16.346Z,100914.47
2023-02-03T00:54:38.837Z,100914.78
2023-02-03T00:58:01.338Z,100915.81
2023-02-03T01:01:23.873Z,100919.44
2023-02-03T01:04:48.540Z,100908.00
2023-02-03T01:08:10.938Z,100920.44
2023-02-03T01:11:33.876Z,100921.44
2023-02-03T01:14:56.380Z,100928.47
2023-02-03T01:18:21.173Z,100936.53
2023-02-03T01:21:45.604Z,100932.88
2023-02-03T01:25:09.548Z,100940.47
2023-02-03T01:28:32.871Z,100943.88
2023-02-03T01:31:55.584Z,100946.94
2023-02-03T01:35:18.041Z,100949.25
2023-02-03T01:38:42.451Z,100949.91
2023-02-03T01:42:05.992Z,100943.19
2023-02-03T01:45:28.477Z,100945.66
2023-02-03T01:48:50.942Z,100944.94
2023-02-03T01:52:13.289Z,100947.75
2023-02-03T01:55:38.670Z,100949.69
2023-02-03T01:59:01.440Z,100944.47
2023-02-03T02:02:24.971Z,100940.00
2023-02-03T02:05:49.661Z,100946.25
2023-02-03T02:09:11.979Z,100938.13
2023-02-03T02:12:38.804Z,100955.66
2023-02-03T02:16:07.011Z,100947.66
2023-02-03T02:19:53.867Z,100949.31
2023-02-03T02:23:38.012Z,100947.59
2023-02-03T02:27:10.679Z,100946.88
2023-02-03T02:30:55.966Z,100954.03
2023-02-03T02:34:23.865Z,100955.09
2023-02-03T02:37:50.659Z,100971.88
2023-02-03T02:41:17.151Z,100965.53
2023-02-03T02:44:42.413Z,100975.31
2023-02-03T02:48:08.343Z,100972.72
2023-02-03T02:51:32.416Z,100967.47
2023-02-03T02:54:56.297Z,100970.00
2023-02-03T02:58:19.166Z,100980.69
2023-02-03T03:01:42.371Z,100986.81
2023-02-03T03:05:05.390Z,100989.31
2023-02-03T03:08:31.848Z,100986.53
2023-02-03T03:11:55.669Z,100978.59
2023-02-03T03:15:22.294Z,100992.84
2023-02-03T03:18:45.565Z,100991.19
2023-02-03T03:22:09.404Z,100985.19
2023-02-03T03:25:35.867Z,100978.31
2023-02-03T03:29:02.228Z,100975.72
2023-02-03T03:32:24.581Z,100977.53
2023-02-03T03:35:49.356Z,100977.34
2023-02-03T03:39:15.025Z,100973.16
2023-02-03T03:46:04.281Z,100972.41
2023-02-03T03:49:27.183Z,100979.72
2023-02-03T03:52:49.774Z,100993.88
2023-02-03T03:56:14.778Z,100989.59
2023-02-03T03:59:39.400Z,100992.06
2023-02-03T04:03:03.635Z,100991.56
2023-02-03T04:06:26.167Z,100997.75
2023-02-03T04:09:48.550Z,100998.16
2023-02-03T04:13:11.759Z,100993.34
2023-02-03T04:16:35.564Z,100989.97
2023-02-03T04:19:58.420Z,100992.06
2023-02-03T04:23:20.748Z,100991.47
2023-02-03T04:26:43.224Z,100998.59
2023-02-03T04:30:06.105Z,100996.09
2023-02-03T04:33:30.174Z,100994.97
2023-02-03T04:36:52.625Z,100998.56
2023-02-03T04:40:15.138Z,100993.03
2023-02-03T04:43:37.753Z,101000.34
2023-02-03T04:47:00.223Z,101004.78
2023-02-03T04:50:24.326Z,101005.81
2023-02-03T04:53:47.327Z,101010.53
2023-02-03T04:57:09.759Z,101005.97
2023-02-03T05:00:32.374Z,100996.44
2023-02-03T05:03:54.991Z,100998.78
2023-02-03T05:07:21.284Z,100992.00
2023-02-03T05:10:43.454Z,100978.44
2023-02-03T05:14:06.096Z,100975.50
2023-02-03T05:17:28.313Z,100973.22
2023-02-03T05:20:50.795Z,100970.62
2023-02-03T05:24:14.557Z,100968.03
2023-02-03T05:27:39.031Z,100970.53
2023-02-03T05:31:01.612Z,100985.00
2023-02-03T05:34:24.460Z,100969.81
2023-02-03T05:37:46.940Z,100975.94
2023-02-03T05:41:29.734Z,100981.56
2023-02-03T05:44:51.900Z,100972.59
2023-02-03T05:48:14.210Z,100960.28
2023-02-03T05:51:36.814Z,100970.97
2023-02-03T05:54:59.245Z,100982.69
2023-02-03T05:58:23.185Z,100981.72
2023-02-03T06:01:45.640Z,100991.12
2023-02-03T06:05:09.100Z,100996.69
2023-02-03T06:08:31.289Z,101001.34
2023-02-03T06:11:53.878Z,101016.97
2023-02-03T06:15:17.968Z,101013.72
2023-02-03T06:18:40.675Z,101007.53
2023-02-03T06:22:03.441Z,101008.03
2023-02-03T06:25:26.374Z,101001.75
2023-02-03T06:28:49.051Z,101000.41
2023-02-03T06:32:13.042Z,101002.87
2023-02-03T06:35:35.690Z,101014.31
2023-02-03T06:38:59.260Z,101014.56
2023-02-03T06:42:21.416Z,101025.47
2023-02-03T06:45:46.066Z,101026.09
2023-02-03T06:49:09.913Z,101028.75
2023-02-03T06:52:32.286Z,101028.81
2023-02-03T06:55:54.916Z,101032.28
2023-02-03T06:59:17.555Z,101015.63
2023-02-03T07:02:40.139Z,101020.13
2023-02-03T07:06:04.921Z,101011.91
2023-02-03T07:09:27.543Z,101006.50
2023-02-03T07:12:50.866Z,101021.25
2023-02-03T07:16:13.667Z,101016.03
2023-02-03T07:19:36.549Z,101009.22
2023-02-03T07:23:00.418Z,101022.16
2023-02-03T07:26:25.287Z,101012.69
2023-02-03T07:29:47.844Z,101022.69
2023-02-03T07:33:10.359Z,101016.03
2023-02-03T07:36:32.817Z,101016.13
2023-02-03T07:39:56.665Z,101014.84
2023-02-03T07:43:18.876Z,101017.41
2023-02-03T07:46:44.949Z,101010.03
2023-02-03T07:50:07.735Z,101004.56
2023-02-03T07:53:30.116Z,101013.00
2023-02-03T07:56:54.466Z,101011.78
2023-02-03T08:00:18.276Z,101020.47
2023-02-03T08:03:41.445Z,101009.75
2023-02-03T08:07:03.831Z,101016.87
2023-02-03T08:10:26.703Z,101014.84
2023-02-03T08:13:51.075Z,101011.31
2023-02-03T08:17:13.399Z,101001.72
2023-02-03T08:20:35.679Z,100999.13
2023-02-03T08:23:58.118Z,101003.00
2023-02-03T08:27:21.749Z,101006.31
2023-02-03T08:30:45.995Z,101009.03
2023-02-03T08:34:08.344Z,101018.44
2023-02-03T08:37:32.553Z,101022.81
2023-02-03T08:40:54.759Z,101030.72
2023-02-03T08:44:18.667Z,101043.22
2023-02-03T08:47:42.250Z,101041.25
2023-02-03T08:51:10.192Z,101036.75
2023-02-03T08:54:32.371Z,101041.81
2023-02-03T08:57:54.912Z,101046.25
2023-02-03T09:01:17.470Z,101048.62
2023-02-03T09:04:42.002Z,101041.00
2023-02-03T09:08:04.576Z,101042.56
2023-02-03T09:11:27.185Z,101040.75
2023-02-03T09:14:49.649Z,101048.69
2023-02-03T09:18:12.824Z,101042.34
2023-02-03T09:21:43.791Z,101043.19
2023-02-03T09:25:13.988Z,101043.09
2023-02-03T09:28:36.011Z,101034.38
2023-02-03T09:32:00.211Z,101047.75
2023-02-03T09:35:22.411Z,101035.03
2023-02-03T09:38:46.316Z,101044.63
2023-02-03T09:42:24.178Z,101037.03
2023-02-03T09:45:47.118Z,101035.53
2023-02-03T09:49:14.957Z,101036.69
2023-02-03T09:52:39.443Z,101033.22
2023-02-03T09:56:03.468Z,101011.84
2023-02-03T09:59:26.144Z,101007.66
2023-02-03T10:02:55.623Z,101014.59
2023-02-03T10:06:23.636Z,101002.97
2023-02-03T10:09:51.561Z,100996.78
2023-02-03T10:13:24.198Z,100986.09
2023-02-03T10:16:53.625Z,100975.91
2023-02-03T10:20:18.940Z,100966.63
2023-02-03T10:23:41.991Z,100952.91
2023-02-03T10:27:05.077Z,100954.09
2023-02-03T10:30:29.860Z,100944.94
2023-02-03T10:33:57.854Z,100929.75
2023-02-03T10:37:29.216Z,100919.94
2023-02-03T10:40:53.520Z,100915.47
2023-02-03T10:44:15.986Z,100913.97
2023-02-03T10:47:41.101Z,100910.09
2023-02-03T10:51:03.374Z,100897.00
2023-02-03T10:54:32.218Z,100888.84
2023-02-03T10:57:54.608Z,100887.06
2023-02-03T11:01:18.324Z,100883.75
2023-02-03T11:04:44.918Z,100874.91
2023-02-03T11:08:12.132Z,100875.00
2023-02-03T11:11:37.372Z,100860.59
2023-02-03T11:15:00.539Z,100861.69
2023-02-03T11:18:37.837Z,100863.31
2023-02-03T11:22:02.114Z,100848.22
2023-02-03T11:25:29.572Z,100849.66
2023-02-03T11:28:54.121Z,100828.72
2023-02-03T11:32:18.609Z,100818.12
2023-02-03T11:35:41.400Z,100806.34
2023-02-03T11:39:22.340Z,100798.66
2023-02-03T11:42:45.959Z,100790.81
2023-02-03T11:46:09.791Z,100777.56
2023-02-03T11:50:07.794Z,100767.91
2023-02-03T11:53:51.231Z,100769.03
2023-02-03T11:57:30.621Z,100751.03
2023-02-03T12:00:58.169Z,100740.75
2023-02-03T12:04:36.648Z,100732.69
2023-02-03T12:08:05.986Z,100728.56
2023-02-03T12:11:35.947Z,100703.69
2023-02-03T12:15:04.279Z,100699.34
2023-02-03T12:18:34.520Z,100690.53
2023-02-03T12:21:59.461Z,100687.84
2023-02-03T12:25:31.340Z,100669.94
2023-02-03T12:28:58.016Z,100662.84
2023-02-03T12:32:26.310Z,100653.94
2023-02-03T12:35:50.360Z,100651.56
2023-02-03T12:39:16.298Z,100636.22
2023-02-03T12:42:40.839Z,100622.19
2023-02-03T12:46:05.889Z,100601.59
2023-02-03T12:49:34.834Z,100587.47
2023-02-03T12:52:58.638Z,100577.69
2023-02-03T12:56:27.173Z,100564.75
2023-02-03T13:00:00.156Z,100560.28
2023-02-03T13:03:26.241Z,100538.84
2023-02-03T13:06:54.095Z,100530.69
2023-02-03T13:10:18.940Z,100527.22
2023-02-03T13:13:45.075Z,100523.81
2023-02-03T13:17:09.324Z,100501.41
2023-02-03T13:20:36.055Z,100506.09
2023-02-03T13:24:00.030Z,100481.03
2023-02-03T13:27:37.075Z,100480.16
2023-02-03T13:31:18.917Z,100476.00
2023-02-03T13:34:49.668Z,100474.53
2023-02-03T13:38:39.335Z,100471.69
2023-02-03T13:42:15.542Z,100459.12
2023-02-03T13:45:40.105Z,100454.00
2023-02-03T13:49:03.984Z,100449.34
2023-02-03T13:52:27.607Z,100445.03
2023-02-03T13:55:54.815Z,100430.72
2023-02-03T13:59:33.070Z,100435.84
2023-02-03T14:02:56.116Z,100420.19
2023-02-03T14:07:00.966Z,100421.84
2023-02-03T14:10:24.375Z,100416.47
2023-02-03T14:13:47.470Z,100405.31
2023-02-03T14:17:31.334Z,100397.91
2023-02-03T14:21:14.395Z,100398.00
2023-02-03T14:24:38.021Z,100377.34
2023-02-03T14:28:00.851Z,100371.22
2023-02-03T14:31:23.640Z,100376.41
2023-02-03T14:34:48.158Z,100362.31
2023-02-03T14:38:12.255Z,100350.47
2023-02-03T14:41:43.171Z,100351.16
2023-02-03T14:45:12.664Z,100352.50
2023-02-03T14:48:43.995Z,100347.56
2023-02-03T14:52:20.778Z,100352.31
2023-02-03T14:55:49.559Z,100330.44
2023-02-03T14:59:12.319Z,100334.88
2023-02-03T15:02:36.289Z,100316.38
2023-02-03T15:06:03.344Z,100308.25
2023-02-03T15:09:32.651Z,100303.53
2023-02-03T15:12:56.048Z,100304.25
2023-02-03T15:16:20.591Z,100299.22
2023-02-03T15:19:43.605Z,100295.06
2023-02-03T15:23:19.497Z,100282.06
2023-02-03T15:26:47.814Z,100270.75
2023-02-03T15:30:17.387Z,100271.00
2023-02-03T15:33:39.795Z,100265.16
2023-02-03T15:37:03.883Z,100254.44
2023-02-03T15:40:27.408Z,100246.16
2023-02-03T15:43:52.089Z,100250.84
2023-02-03T15:47:21.375Z,100249.50
2023-02-03T15:50:44.526Z,100228.69
2023-02-03T15:54:10.347Z,100223.75
2023-02-03T15:57:34.675Z,100224.56
2023-02-03T16:00:59.143Z,100230.84
2023-02-03T16:04:22.092Z,100228.00
2023-02-03T16:07:44.694Z,100214.41
2023-02-03T16:11:24.504Z,100209.63
2023-02-03T16:14:47.119Z,100200.75
2023-02-03T16:18:14.226Z,100201.25
2023-02-03T16:21:37.234Z,100202.03
2023-02-03T16:25:14.491Z,100192.31
2023-02-03T16:28:54.058Z,100173.91
2023-02-03T16:32:36.769Z,100178.97
2023-02-03T16:36:21.479Z,100158.28
2023-02-03T16:40:01.644Z,100152.00
2023-02-03T16:43:41.415Z,100144.16
2023-02-03T16:47:21.707Z,100136.03
2023-02-03T16:50:54.142Z,100127.91
2023-02-03T16:54:19.352Z,100118.69
2023-02-03T16:57:42.212Z,100120.53
2023-02-03T17:01:05.799Z,100095.75
2023-02-03T17:04:28.215Z,100092.97
2023-02-03T17:07:51.396Z,100080.72
2023-02-03T17:11:17.241Z,100079.59
2023-02-03T17:14:42.902Z,100056.75
2023-02-03T17:18:05.800Z,100059.97
2023-02-03T17:21:30.647Z,100045.66
2023-02-03T17:24:54.724Z,100044.13
2023-02-03T17:28:20.082Z,100034.94
2023-02-03T17:31:44.701Z,100011.78
2023-02-03T17:35:09.195Z,100010.06
2023-02-03T17:38:32.147Z,99999.31
2023-02-03T17:56:28.226Z,100001.06
2023-02-03T17:59:55.671Z,99991.75
2023-02-03T18:03:24.157Z,99976.84
2023-02-03T18:06:49.765Z,99959.66
2023-02-03T18:10:14.359Z,99962.16
2023-02-03T18:13:39.002Z,99965.78
2023-02-03T18:17:02.431Z,99957.56
2023-02-03T18:20:28.442Z,99976.09
2023-02-03T18:23:54.301Z,99957.28
2023-02-03T18:27:17.432Z,99970.44
2023-02-03T18:30:41.061Z,99965.03
2023-02-03T18:34:07.089Z,99961.22
2023-02-03T18:37:32.983Z,99941.81
2023-02-03T18:40:59.108Z,99941.63
2023-02-03T18:44:25.991Z,99946.81
2023-02-03T18:47:51.196Z,99927.44
2023-02-03T18:51:17.119Z,99930.53
2023-02-03T18:54:46.034Z,99925.91
2023-02-03T18:58:10.669Z,99938.59
2023-02-03T19:01:34.989Z,99933.28
2023-02-03T19:04:59.710Z,99935.09
2023-02-03T19:08:24.613Z,99934.09
2023-02-03T19:11:50.418Z,99946.56
2023-02-03T19:15:18.868Z,99953.75
2023-02-03T19:18:44.759Z,99942.66
2023-02-03T19:22:14.080Z,99927.31
2023-02-03T19:25:39.509Z,99913.25
2023-02-03T19:29:06.286Z,99882.78
2023-02-03T19:32:33.512Z,99880.94
2023-02-03T19:35:58.122Z,99878.56
2023-02-03T19:39:22.991Z,99887.56
2023-02-03T19:42:47.613Z,99888.13
2023-02-03T19:46:16.284Z,99891.66
2023-02-03T19:49:49.147Z,99897.84
2023-02-03T19:53:12.877Z,99880.41
2023-02-03T19:56:37.592Z,99873.88
2023-02-03T20:00:05.848Z,99862.56
2023-02-03T20:03:41.734Z,99835.97
2023-02-03T20:07:07.317Z,99837.06
2023-02-03T20:10:33.321Z,99845.25
2023-02-03T20:13:59.845Z,99847.13
2023-02-03T20:17:24.822Z,99831.38
2023-02-03T20:20:55.961Z,99829.56
2023-02-03T20:24:22.369Z,99836.19
2023-02-03T20:27:47.829Z,99835.19
2023-02-03T20:31:12.287Z,99833.94
2023-02-03T20:34:40.806Z,99827.41
2023-02-03T20:38:06.421Z,99838.44
2023-02-03T20:41:31.558Z,99855.66
2023-02-03T20:44:55.897Z,99848.28
2023-02-03T20:48:26.641Z,99835.25
2023-02-03T20:51:53.276Z,99834.34
2023-02-03T20:55:20.989Z,99839.22
2023-02-03T20:58:47.193Z,99850.25
2023-02-03T21:02:20.568Z,99854.19
2023-02-03T21:05:50.957Z,99868.38
2023-02-03T21:09:21.370Z,99869.97
2023-02-03T21:12:47.668Z,99869.41
2023-02-03T21:16:18.493Z,99865.50
2023-02-03T21:19:44.899Z,99859.16
2023-02-03T21:23:13.767Z,99864.37
2023-02-03T21:26:39.853Z,99865.22
2023-02-03T21:30:24.941Z,99848.28
2023-02-03T21:33:52.076Z,99859.41
2023-02-03T21:37:44.080Z,99866.88
2023-02-03T21:41:16.646Z,99882.09
2023-02-03T21:44:43.707Z,99886.59
2023-02-03T21:48:28.792Z,99880.22
2023-02-03T21:51:51.948Z,99884.63
2023-02-03T21:55:15.772Z,99890.50
2023-02-03T21:58:38.913Z,99897.25
2023-02-03T22:02:03.995Z,99884.44
2023-02-03T22:05:28.756Z,99888.63
2023-02-03T22:08:54.346Z,99885.09
2023-02-03T22:12:17.354Z,99880.50
2023-02-03T22:15:39.922Z,99882.22
2023-02-03T22:19:02.944Z,99886.19
2023-02-03T22:22:26.578Z,99891.38
2023-02-03T22:25:49.290Z,99885.59
2023-02-03T22:29:11.807Z,99884.00
2023-02-03T22:32:34.410Z,99897.13
2023-02-03T22:35:56.975Z,99908.75
2023-02-03T22:39:20.907Z,99910.13
2023-02-03T22:42:43.445Z,99910.63
2023-02-03T22:46:07.229Z,99923.28
2023-02-03T22:49:30.071Z,99922.06
2023-02-03T22:52:54.201Z,99935.38
2023-02-03T22:56:17.837Z,99925.59
2023-02-03T22:59:40.589Z,99933.03
2023-02-03T23:03:04.232Z,99942.59
2023-02-03T23:06:26.976Z,99932.03
2023-02-03T23:09:49.445Z,99938.88
2023-02-03T23:13:13.382Z,99938.66
2023-02-03T23:16:35.846Z,99932.31
2023-02-03T23:20:00.601Z,99927.81
2023-02-03T23:23:22.808Z,99916.28
2023-02-03T23:26:45.238Z,99918.06
2023-02-03T23:30:10.390Z,99913.28
2023-02-03T23:33:32.778Z,99915.13
2023-02-03T23:36:54.251Z,99916.44
2023-02-03T23:40:17.276Z,99922.75
2023-02-03T23:43:39.639Z,99919.63
2023-02-03T23:47:04.242Z,99920.41
2023-02-03T23:50:26.480Z,99919.63
2023-02-03T23:53:49.570Z,99910.81
2023-02-03T23:57:12.041Z,99912.81
